KGFK

Grand Forks International Airport

Grand Forks, North Dakota, USA
KGFK 151130Z 1512/1612 27006KT P6SM BKN120 FM151300 31009KT P6SM VCSH BKN070 FM151700 34014G23KT P6SM -SN OVC025 FM160300 32010KT P6SM BKN025
Issued Valid From Valid To
Nov-15 @ 11:30 UTC
(an hour ago)
Nov-15 @ 12:00 UTC
(42 minutes ago)
Nov-16 @ 12:00 UTC
(in 23 hours)
Nov-15 @ 12:00 to Nov-15 @ 13:00
KGFK 151130Z 1512/1612 27006KT P6SM BKN120
Wind Visibility Clouds
270° at 6 knots Greater than 6 miles
  • Broken at 12,000' AGL
From Nov-15 @ 13:00 to Nov-15 @ 17:00
FM151300 31009KT P6SM VCSH BKN070
Wind Visibility Clouds
310° at 9 knots Greater than 6 miles
  • Broken at 7,000' AGL
From Nov-15 @ 17:00 to Nov-16 @ 03:00
FM151700 34014G23KT P6SM -SN OVC025
Wind Visibility Clouds Conditions
340° at 14 knots
 Gusting to 23 knots
Greater than 6 miles
  • Overcast at 2,500' AGL
  • Light Snow
From Nov-16 @ 03:00 to Nov-16 @ 12:00
FM160300 32010KT P6SM BKN025
Wind Visibility Clouds
320° at 10 knots Greater than 6 miles
  • Broken at 2,500' AGL
KGFK 151130Z 1512/1612 27006KT P6SM BKN120 FM151300 31009KT P6SM VCSH BKN070 FM151700 34014G23KT P6SM -SN OVC025 FM160300 32010KT P6SM BKN025
Issued Nov-15 @ 11:30 UTC
(an hour ago)
Valid From Nov-15 @ 12:00 UTC
(42 minutes ago)
Valid To Nov-16 @ 12:00 UTC
(in 23 hours)
Nov-15 @ 12:00 - Nov-15 @ 13:00
Wind Visibility
270° at 6 knots Greater than 6 miles
Clouds
  • Broken at 12,000' AGL
From Nov-15 @ 13:00 - Nov-15 @ 17:00
Wind Visibility
310° at 9 knots Greater than 6 miles
Clouds
  • Broken at 7,000' AGL
From Nov-15 @ 17:00 - Nov-16 @ 03:00
Wind Visibility
340° at 14 knots
 Gusting to 23 knots
Greater than 6 miles
Clouds
  • Overcast at 2,500' AGL
Conditions
  • Light Snow
From Nov-16 @ 03:00 - Nov-16 @ 12:00
Wind Visibility
320° at 10 knots Greater than 6 miles
Clouds
  • Broken at 2,500' AGL